createdAt,value
2023-02-13T00:01:05.733Z,-23282.16
2023-02-13T00:03:08.491Z,-23282.00
2023-02-13T00:05:11.662Z,-23281.19
2023-02-13T00:07:14.652Z,-23284.06
2023-02-13T00:09:18.656Z,-23281.38
2023-02-13T00:11:21.597Z,-23278.03
2023-02-13T00:13:24.236Z,-23277.06
2023-02-13T00:15:27.008Z,-23275.16
2023-02-13T00:17:29.712Z,-23266.88
2023-02-13T00:19:32.466Z,-23264.63
2023-02-13T00:21:35.299Z,-23265.25
2023-02-13T00:23:39.185Z,-23264.63
2023-02-13T00:25:43.158Z,-23263.19
2023-02-13T00:27:45.802Z,-23263.66
2023-02-13T00:29:48.456Z,-23262.41
2023-02-13T00:31:51.175Z,-23264.16
2023-02-13T00:33:53.924Z,-23266.88
2023-02-13T00:36:04.028Z,-23264.94
2023-02-13T00:38:06.717Z,-23267.19
2023-02-13T00:40:10.477Z,-23273.88
2023-02-13T00:42:14.474Z,-23266.88
2023-02-13T00:44:17.146Z,-23268.44
2023-02-13T00:46:19.996Z,-23265.25
2023-02-13T00:48:22.711Z,-23269.09
2023-02-13T00:50:25.293Z,-23270.03
2023-02-13T00:52:27.893Z,-23266.38
2023-02-13T00:54:30.558Z,-23267.97
2023-02-13T00:56:33.245Z,-23266.22
2023-02-13T00:58:37.666Z,-23268.13
2023-02-13T01:00:40.671Z,-23263.03
2023-02-13T01:02:43.307Z,-23261.44
2023-02-13T01:04:45.960Z,-23260.31
2023-02-13T01:06:49.637Z,-23261.75
2023-02-13T01:08:52.363Z,-23262.72
2023-02-13T01:10:56.316Z,-23258.56
2023-02-13T01:12:59.094Z,-23253.94
2023-02-13T01:15:03.250Z,-23253.63
2023-02-13T01:17:05.866Z,-23253.16
2023-02-13T01:19:08.592Z,-23252.19
2023-02-13T01:21:17.522Z,-23250.91
2023-02-13T01:23:20.129Z,-23249.63
2023-02-13T01:25:23.031Z,-23250.44
2023-02-13T01:27:25.708Z,-23249.31
2023-02-13T01:29:28.345Z,-23251.06
2023-02-13T01:31:32.621Z,-23252.50
2023-02-13T01:33:36.055Z,-23252.19
2023-02-13T01:35:40.174Z,-23256.34
2023-02-13T01:37:43.367Z,-23249.78
2023-02-13T01:39:46.107Z,-23247.09
2023-02-13T01:41:48.742Z,-23245.19
2023-02-13T01:43:54.086Z,-23246.78
2023-02-13T01:45:58.718Z,-23247.88
2023-02-13T01:48:06.953Z,-23245.00
2023-02-13T01:50:12.693Z,-23243.91
2023-02-13T01:52:17.549Z,-23247.72
2023-02-13T01:54:23.577Z,-23246.78
2023-02-13T01:56:30.674Z,-23245.19
2023-02-13T01:58:36.840Z,-23247.09
2023-02-13T02:00:40.869Z,-23246.44
2023-02-13T02:02:46.368Z,-23245.19
2023-02-13T02:04:51.630Z,-23241.66
2023-02-13T02:06:58.363Z,-23241.50
2023-02-13T02:09:06.318Z,-23239.75
2023-02-13T02:11:17.946Z,-23238.47
2023-02-13T02:13:22.671Z,-23241.34
2023-02-13T02:15:25.987Z,-23240.56
2023-02-13T02:17:29.039Z,-23240.22
2023-02-13T02:19:39.453Z,-23240.38
2023-02-13T02:22:07.073Z,-23238.47
2023-02-13T02:24:39.597Z,-23235.28
2023-02-13T02:27:15.381Z,-23231.78
2023-02-13T02:29:49.530Z,-23233.38
2023-02-13T02:32:09.644Z,-23231.78
2023-02-13T02:34:19.429Z,-23228.75
2023-02-13T02:36:37.123Z,-23230.19
2023-02-13T02:38:56.093Z,-23231.94
2023-02-13T02:41:07.955Z,-23231.63
2023-02-13T02:43:25.013Z,-23229.84
2023-02-13T02:45:37.143Z,-23227.63
2023-02-13T02:48:08.456Z,-23230.03
2023-02-13T02:50:22.457Z,-23225.06
2023-02-13T02:52:32.624Z,-23225.38
2023-02-13T02:54:58.698Z,-23226.50
2023-02-13T02:57:08.523Z,-23223.78
2023-02-13T02:59:34.480Z,-23225.06
2023-02-13T03:01:56.356Z,-23226.66
2023-02-13T03:04:19.034Z,-23223.16
2023-02-13T03:06:27.144Z,-23223.16
2023-02-13T03:08:44.915Z,-23221.88
2023-02-13T03:11:05.333Z,-23222.84
2023-02-13T03:13:21.996Z,-23221.25
2023-02-13T03:15:28.062Z,-23218.84
2023-02-13T03:17:48.662Z,-23218.06
2023-02-13T03:20:19.971Z,-23222.03
2023-02-13T03:22:32.638Z,-23219.81
2023-02-13T03:24:46.411Z,-23222.34
2023-02-13T03:26:52.820Z,-23224.75
2023-02-13T03:29:18.267Z,-23224.28
2023-02-13T03:31:31.154Z,-23224.91
2023-02-13T03:33:42.936Z,-23224.75
2023-02-13T03:36:08.581Z,-23225.06
2023-02-13T03:38:16.664Z,-23223.31
2023-02-13T03:40:26.088Z,-23222.69
2023-02-13T03:42:34.927Z,-23222.03
2023-02-13T03:44:44.220Z,-23221.41
2023-02-13T03:46:49.601Z,-23222.84
2023-02-13T03:49:10.740Z,-23223.16
2023-02-13T03:51:23.026Z,-23222.50
2023-02-13T03:53:28.083Z,-23220.13
2023-02-13T03:55:52.825Z,-23219.66
2023-02-13T03:58:15.121Z,-23221.88
2023-02-13T04:00:19.546Z,-23222.19
2023-02-13T04:02:26.460Z,-23223.63
2023-02-13T04:04:31.960Z,-23223.94
2023-02-13T04:06:39.524Z,-23223.94
2023-02-13T04:08:42.620Z,-23226.81
2023-02-13T04:10:52.877Z,-23226.66
2023-02-13T04:13:04.518Z,-23223.63
2023-02-13T04:15:13.593Z,-23222.50
2023-02-13T04:17:22.809Z,-23220.13
2023-02-13T04:19:26.945Z,-23220.44
2023-02-13T04:21:33.777Z,-23221.88
2023-02-13T04:23:37.929Z,-23218.06
2023-02-13T04:25:44.891Z,-23219.16
2023-02-13T04:27:47.354Z,-23219.97
2023-02-13T04:29:50.063Z,-23219.97
2023-02-13T04:31:53.107Z,-23223.94
2023-02-13T04:33:55.810Z,-23222.84
2023-02-13T04:35:58.418Z,-23223.63
2023-02-13T04:38:01.031Z,-23221.56
2023-02-13T04:40:05.803Z,-23222.19
2023-02-13T04:42:08.573Z,-23220.13
2023-02-13T04:44:11.345Z,-23220.13
2023-02-13T04:46:14.064Z,-23220.44
2023-02-13T04:48:16.816Z,-23221.09
2023-02-13T04:50:19.944Z,-23220.94
2023-02-13T04:52:22.618Z,-23220.59
2023-02-13T04:54:25.273Z,-23219.97
2023-02-13T04:56:29.241Z,-23219.66
2023-02-13T04:58:32.155Z,-23217.09
2023-02-13T05:00:34.800Z,-23218.69
2023-02-13T05:02:39.341Z,-23217.72
2023-02-13T05:04:42.425Z,-23220.44
2023-02-13T05:06:45.189Z,-23219.00
2023-02-13T05:08:47.823Z,-23218.69
2023-02-13T05:10:50.397Z,-23217.25
2023-02-13T05:12:54.907Z,-23215.81
2023-02-13T05:14:57.523Z,-23216.44
2023-02-13T05:17:00.188Z,-23217.25
2023-02-13T05:19:03.090Z,-23218.53
2023-02-13T05:21:23.766Z,-23219.66
2023-02-13T05:23:26.454Z,-23219.50
2023-02-13T05:25:29.393Z,-23224.13
2023-02-13T05:27:32.083Z,-23224.28
2023-02-13T05:29:35.281Z,-23226.03
2023-02-13T05:31:37.965Z,-23227.63
2023-02-13T05:33:40.747Z,-23229.84
2023-02-13T05:35:43.334Z,-23225.72
2023-02-13T05:37:46.114Z,-23220.13
2023-02-13T05:39:48.739Z,-23217.72
2023-02-13T05:41:51.654Z,-23217.25
2023-02-13T05:43:54.346Z,-23218.53
2023-02-13T05:46:09.568Z,-23222.50
2023-02-13T05:48:12.329Z,-23227.47
2023-02-13T05:50:15.000Z,-23227.47
2023-02-13T05:52:17.711Z,-23228.41
2023-02-13T05:54:20.703Z,-23229.53
2023-02-13T05:56:23.462Z,-23225.38
2023-02-13T05:58:26.069Z,-23223.78
2023-02-13T06:00:28.776Z,-23221.09
2023-02-13T06:02:32.839Z,-23222.50
2023-02-13T06:04:35.459Z,-23225.56
2023-02-13T06:06:38.137Z,-23225.72
2023-02-13T06:08:40.758Z,-23228.59
2023-02-13T06:10:45.180Z,-23226.03
2023-02-13T06:12:47.813Z,-23228.91
2023-02-13T06:14:50.410Z,-23226.66
2023-02-13T06:16:53.117Z,-23224.28
2023-02-13T06:18:57.160Z,-23220.59
2023-02-13T06:21:00.438Z,-23216.13
2023-02-13T06:23:03.114Z,-23215.00
2023-02-13T06:25:06.707Z,-23215.66
2023-02-13T06:27:09.307Z,-23211.03
2023-02-13T06:29:12.860Z,-23214.22
2023-02-13T06:31:15.542Z,-23212.63
2023-02-13T06:33:18.238Z,-23211.66
2023-02-13T06:35:22.512Z,-23206.88
2023-02-13T06:37:25.279Z,-23206.25
2023-02-13T06:39:27.910Z,-23204.63
2023-02-13T06:41:30.617Z,-23207.69
2023-02-13T06:43:33.585Z,-23204.16
2023-02-13T06:45:36.208Z,-23207.69
2023-02-13T06:47:42.732Z,-23207.34
2023-02-13T06:49:45.351Z,-23205.75
2023-02-13T06:51:49.389Z,-23206.25
2023-02-13T06:53:52.002Z,-23204.97
2023-02-13T06:55:55.400Z,-23204.97
2023-02-13T06:57:58.059Z,-23204.31
2023-02-13T07:00:00.962Z,-23208.16
2023-02-13T07:02:03.680Z,-23209.13
2023-02-13T07:04:06.371Z,-23212.78
2023-02-13T07:06:09.390Z,-23211.19
2023-02-13T07:08:13.940Z,-23211.03
2023-02-13T07:10:16.660Z,-23211.03
2023-02-13T07:12:19.384Z,-23213.56
2023-02-13T07:14:22.233Z,-23212.47
2023-02-13T07:16:25.281Z,-23212.00
2023-02-13T07:18:28.136Z,-23215.00
2023-02-13T07:20:30.964Z,-23219.00
2023-02-13T07:22:34.100Z,-23218.38
2023-02-13T07:24:38.615Z,-23219.00
2023-02-13T07:26:41.266Z,-23218.06
2023-02-13T07:28:44.104Z,-23220.13
2023-02-13T07:30:46.816Z,-23227.78
2023-02-13T07:32:49.498Z,-23224.75
2023-02-13T07:35:01.302Z,-23226.50
2023-02-13T07:37:04.836Z,-23233.38
2023-02-13T07:39:07.691Z,-23226.03
2023-02-13T07:41:11.683Z,-23231.47
2023-02-13T07:43:14.532Z,-23238.16
2023-02-13T07:45:17.402Z,-23243.41
2023-02-13T07:47:20.399Z,-23246.44
2023-02-13T07:49:23.495Z,-23246.44
2023-02-13T07:51:26.252Z,-23245.81
2023-02-13T07:53:28.989Z,-23253.47
2023-02-13T07:55:32.634Z,-23257.63
2023-02-13T07:57:36.690Z,-23249.63
2023-02-13T07:59:39.296Z,-23275.31
2023-02-13T08:01:41.966Z,-23282.81
2023-02-13T08:03:44.732Z,-23297.94
2023-02-13T08:05:49.943Z,-23298.56
2023-02-13T08:07:53.601Z,-23310.19
2023-02-13T08:10:13.712Z,-23324.03
2023-02-13T08:12:16.418Z,-23326.59
2023-02-13T08:14:20.664Z,-23341.25
2023-02-13T08:16:23.416Z,-23356.84
2023-02-13T08:18:26.085Z,-23377.66
2023-02-13T08:20:28.848Z,-23332.66
2023-02-13T08:22:31.548Z,-23310.19
2023-02-13T08:24:34.727Z,-23314.97
2023-02-13T08:26:37.574Z,-23337.41
2023-02-13T08:28:40.264Z,-23363.66
2023-02-13T08:30:44.381Z,-23363.03
2023-02-13T08:32:54.205Z,-23374.63
2023-02-13T08:34:57.304Z,-23411.03
2023-02-13T08:36:59.953Z,-23393.41
2023-02-13T08:39:02.529Z,-23413.25
2023-02-13T08:41:06.285Z,-23392.75
2023-02-13T08:43:09.160Z,-23396.56
2023-02-13T08:45:12.323Z,-23344.59
2023-02-13T08:47:16.367Z,-23374.81
2023-02-13T08:49:19.300Z,-23374.81
2023-02-13T08:51:22.040Z,-23401.03
2023-02-13T08:53:25.184Z,-23374.00
2023-02-13T08:55:29.014Z,-23416.09
2023-02-13T08:57:32.211Z,-23435.81
2023-02-13T08:59:34.928Z,-23407.84
2023-02-13T09:01:37.660Z,-23414.22
2023-02-13T09:03:41.784Z,-23402.78
2023-02-13T09:05:44.613Z,-23420.88
2023-02-13T09:07:47.390Z,-23418.03
2023-02-13T09:09:50.114Z,-23426.13
2023-02-13T09:11:53.941Z,-23456.75
2023-02-13T09:13:56.770Z,-23483.38
2023-02-13T09:16:01.427Z,-23509.06
2023-02-13T09:18:04.167Z,-23444.53
2023-02-13T09:20:09.259Z,-23472.13
2023-02-13T09:22:12.087Z,-23419.75
2023-02-13T09:24:14.858Z,-23436.44
2023-02-13T09:26:19.750Z,-23486.72
2023-02-13T09:28:23.397Z,-23446.44
2023-02-13T09:30:26.252Z,-23430.09
2023-02-13T09:32:29.420Z,-23446.13
2023-02-13T09:34:32.101Z,-23467.69
2023-02-13T09:36:37.265Z,-23438.66
2023-02-13T09:38:39.950Z,-23496.38
2023-02-13T09:40:46.451Z,-23466.91
2023-02-13T09:42:51.027Z,-23438.66
2023-02-13T09:44:56.747Z,-23470.69
2023-02-13T09:46:59.549Z,-23534.88
2023-02-13T09:49:08.797Z,-23565.41
2023-02-13T09:51:16.006Z,-23572.03
2023-02-13T09:53:23.478Z,-23528.06
2023-02-13T09:55:30.784Z,-23528.69
2023-02-13T09:57:37.477Z,-23542.63
2023-02-13T09:59:51.083Z,-23560.03
2023-02-13T10:01:59.029Z,-23529.81
2023-02-13T10:04:26.332Z,-23550.84
2023-02-13T10:06:32.975Z,-23510.50
2023-02-13T10:08:55.942Z,-23493.53
2023-02-13T10:11:08.275Z,-23478.94
2023-02-13T10:13:26.329Z,-23452.94
2023-02-13T10:15:38.432Z,-23487.50
2023-02-13T10:17:45.643Z,-23467.06
2023-02-13T10:19:51.674Z,-23463.25
2023-02-13T10:21:57.718Z,-23482.44
2023-02-13T10:24:07.907Z,-23438.97
2023-02-13T10:26:19.943Z,-23451.66
2023-02-13T10:28:31.601Z,-23426.59
2023-02-13T10:30:40.884Z,-23408.81
2023-02-13T10:32:49.449Z,-23404.19
2023-02-13T10:34:56.124Z,-23408.81
2023-02-13T10:36:58.580Z,-23404.69
2023-02-13T10:39:15.689Z,-23388.16
2023-02-13T10:41:26.295Z,-23378.78
2023-02-13T10:43:34.020Z,-23388.47
2023-02-13T10:45:58.300Z,-23429.94
2023-02-13T10:48:15.585Z,-23456.44
2023-02-13T10:50:25.732Z,-23438.66
2023-02-13T10:52:40.513Z,-23417.22
2023-02-13T10:55:02.474Z,-23403.41
2023-02-13T10:57:13.434Z,-23391.34
2023-02-13T10:59:33.229Z,-23396.72
2023-02-13T11:01:42.861Z,-23396.25
2023-02-13T11:03:47.968Z,-23362.41
2023-02-13T11:05:52.163Z,-23368.28
2023-02-13T11:07:54.806Z,-23375.13
2023-02-13T11:10:04.380Z,-23381.78
2023-02-13T11:12:26.116Z,-23382.59
2023-02-13T11:14:28.842Z,-23358.59
2023-02-13T11:16:40.357Z,-23375.44
2023-02-13T11:18:50.520Z,-23379.25
2023-02-13T11:21:02.381Z,-23381.97
2023-02-13T11:23:35.356Z,-23378.47
2023-02-13T11:25:39.564Z,-23378.31
2023-02-13T11:27:42.327Z,-23383.38
2023-02-13T11:29:55.321Z,-23386.56
2023-02-13T11:32:12.752Z,-23381.31
2023-02-13T11:34:27.480Z,-23384.97
2023-02-13T11:36:31.826Z,-23385.59
2023-02-13T11:38:34.556Z,-23380.84
2023-02-13T11:40:39.519Z,-23386.72
2023-02-13T11:42:43.913Z,-23401.81
2023-02-13T11:44:52.628Z,-23405.16
2023-02-13T11:46:57.551Z,-23399.59
2023-02-13T11:49:02.832Z,-23394.19
2023-02-13T11:51:06.086Z,-23386.25
2023-02-13T11:53:19.094Z,-23387.19
2023-02-13T11:55:31.841Z,-23392.28
2023-02-13T11:57:36.657Z,-23398.66
2023-02-13T11:59:44.872Z,-23407.22
2023-02-13T12:01:50.353Z,-23406.91
2023-02-13T12:04:08.327Z,-23407.53
2023-02-13T12:06:15.619Z,-23407.22
2023-02-13T12:08:18.465Z,-23395.00
2023-02-13T12:10:24.058Z,-23408.16
2023-02-13T12:12:33.899Z,-23394.66
2023-02-13T12:14:40.885Z,-23399.91
2023-02-13T12:16:47.352Z,-23398.97
2023-02-13T12:18:53.827Z,-23402.28
2023-02-13T12:21:05.268Z,-23408.81
2023-02-13T12:23:19.648Z,-23405.31
2023-02-13T12:25:35.287Z,-23393.41
2023-02-13T12:27:52.076Z,-23412.47
2023-02-13T12:30:10.425Z,-23417.06
2023-02-13T12:32:19.848Z,-23424.69
2023-02-13T12:34:55.553Z,-23416.75
2023-02-13T12:37:11.459Z,-23412.31
2023-02-13T12:39:25.932Z,-23425.63
2023-02-13T12:41:40.224Z,-23421.34
2023-02-13T12:44:05.718Z,-23438.97
2023-02-13T12:46:16.308Z,-23432.94
2023-02-13T12:48:30.765Z,-23454.84
2023-02-13T12:50:44.933Z,-23426.91
2023-02-13T12:52:58.976Z,-23465.63
2023-02-13T12:55:23.428Z,-23475.94
2023-02-13T12:57:33.947Z,-23440.41
2023-02-13T12:59:49.903Z,-23492.44
2023-02-13T13:02:14.733Z,-23487.50
2023-02-13T13:04:26.110Z,-23511.28
2023-02-13T13:06:47.824Z,-23510.31
2023-02-13T13:09:20.591Z,-23505.91
2023-02-13T13:11:34.896Z,-23513.19
2023-02-13T13:13:50.753Z,-23512.53
2023-02-13T13:16:02.874Z,-23504.16
2023-02-13T13:18:24.640Z,-23445.31
2023-02-13T13:20:53.125Z,-23473.56
2023-02-13T13:23:01.359Z,-23472.13
2023-02-13T13:25:15.238Z,-23514.44
2023-02-13T13:27:23.098Z,-23480.84
2023-02-13T13:29:30.596Z,-23496.72
2023-02-13T13:31:36.875Z,-23525.53
2023-02-13T13:33:45.035Z,-23545.16
2023-02-13T13:35:56.822Z,-23532.19
2023-02-13T13:38:10.144Z,-23529.34
2023-02-13T13:40:30.549Z,-23510.31
2023-02-13T13:42:42.041Z,-23499.88
2023-02-13T13:44:54.640Z,-23506.84
2023-02-13T13:47:02.127Z,-23535.03
2023-02-13T13:49:25.557Z,-23528.69
2023-02-13T13:51:28.478Z,-23516.97
2023-02-13T13:53:31.134Z,-23527.59
2023-02-13T13:56:09.545Z,-23516.97
2023-02-13T13:58:22.552Z,-23491.31
2023-02-13T14:00:28.110Z,-23496.06
2023-02-13T14:02:46.511Z,-23483.72
2023-02-13T14:05:03.936Z,-23500.19
2023-02-13T14:07:23.773Z,-23505.56
2023-02-13T14:09:44.729Z,-23490.38
2023-02-13T14:11:47.500Z,-23500.19
2023-02-13T14:13:50.366Z,-23499.06
2023-02-13T14:15:55.104Z,-23483.53
2023-02-13T14:17:58.778Z,-23491.94
2023-02-13T14:20:06.578Z,-23473.25
2023-02-13T14:22:34.487Z,-23486.88
2023-02-13T14:24:37.190Z,-23478.31
2023-02-13T14:26:41.588Z,-23470.06
2023-02-13T14:28:56.645Z,-23474.50
2023-02-13T14:31:07.871Z,-23482.91
2023-02-13T14:33:25.310Z,-23481.47
2023-02-13T14:35:32.466Z,-23478.00
2023-02-13T14:37:39.932Z,-23488.78
2023-02-13T14:39:42.725Z,-23474.34
2023-02-13T14:41:57.921Z,-23471.66
2023-02-13T14:44:00.877Z,-23472.59
2023-02-13T14:46:09.866Z,-23472.75
2023-02-13T14:48:15.184Z,-23459.13
2023-02-13T14:50:22.929Z,-23455.00
2023-02-13T14:52:30.915Z,-23464.03
2023-02-13T14:54:35.730Z,-23460.56
2023-02-13T14:56:39.885Z,-23456.44
2023-02-13T14:58:50.294Z,-23459.59
2023-02-13T15:00:57.011Z,-23462.47
2023-02-13T15:03:06.199Z,-23448.66
2023-02-13T15:05:15.439Z,-23451.66
2023-02-13T15:07:23.672Z,-23442.16
2023-02-13T15:09:34.057Z,-23443.75
2023-02-13T15:11:38.920Z,-23441.84
2023-02-13T15:13:41.594Z,-23437.06
2023-02-13T15:15:44.375Z,-23430.56
2023-02-13T15:17:47.834Z,-23424.69
2023-02-13T15:19:53.783Z,-23423.72
2023-02-13T15:22:00.126Z,-23421.19
2023-02-13T15:24:03.614Z,-23419.28
2023-02-13T15:26:08.699Z,-23418.34
2023-02-13T15:28:20.747Z,-23416.44
2023-02-13T15:30:25.921Z,-23417.38
2023-02-13T15:32:32.142Z,-23409.13
2023-02-13T15:34:35.254Z,-23409.75
2023-02-13T15:36:42.610Z,-23412.63
2023-02-13T15:38:45.286Z,-23407.53
2023-02-13T15:40:51.837Z,-23402.13
2023-02-13T15:42:56.656Z,-23399.13
2023-02-13T15:44:59.588Z,-23403.41
2023-02-13T15:47:07.292Z,-23401.34
2023-02-13T15:49:15.190Z,-23400.72
2023-02-13T15:51:20.639Z,-23392.44
2023-02-13T15:53:23.501Z,-23391.97
2023-02-13T15:55:29.047Z,-23390.69
2023-02-13T15:57:32.705Z,-23380.53
2023-02-13T15:59:39.346Z,-23378.94
2023-02-13T16:01:44.484Z,-23380.53
2023-02-13T16:03:50.368Z,-23376.41
2023-02-13T16:05:53.265Z,-23372.09
2023-02-13T16:07:58.290Z,-23371.31
2023-02-13T16:10:15.838Z,-23367.50
2023-02-13T16:12:23.126Z,-23371.78
2023-02-13T16:14:28.120Z,-23365.25
2023-02-13T16:16:36.385Z,-23354.94
2023-02-13T16:18:41.344Z,-23361.75
2023-02-13T16:20:44.062Z,-23353.19
2023-02-13T16:22:48.892Z,-23358.59
2023-02-13T16:24:54.041Z,-23355.72
2023-02-13T16:26:57.365Z,-23354.13
2023-02-13T16:29:00.115Z,-23350.47
2023-02-13T16:31:04.433Z,-23343.94
2023-02-13T16:33:22.617Z,-23342.34
2023-02-13T16:35:29.658Z,-23340.13
2023-02-13T16:37:34.525Z,-23343.00
2023-02-13T16:39:37.150Z,-23335.97
2023-02-13T16:41:39.785Z,-23335.97
2023-02-13T16:43:47.498Z,-23333.28
2023-02-13T16:45:50.208Z,-23325.63
2023-02-13T16:48:02.465Z,-23318.47
2023-02-13T16:50:15.579Z,-23321.97
2023-02-13T16:52:21.022Z,-23322.78
2023-02-13T16:54:35.399Z,-23318.16
2023-02-13T16:56:40.217Z,-23315.94
2023-02-13T16:58:42.932Z,-23317.19
2023-02-13T17:00:51.211Z,-23312.75
2023-02-13T17:02:53.897Z,-23312.09
2023-02-13T17:05:00.052Z,-23302.72
2023-02-13T17:07:03.990Z,-23308.91
2023-02-13T17:09:06.656Z,-23308.28
2023-02-13T17:11:09.509Z,-23305.91
2023-02-13T17:13:17.754Z,-23301.75
2023-02-13T17:15:22.649Z,-23289.50
2023-02-13T17:17:25.633Z,-23280.41
2023-02-13T17:19:29.370Z,-23285.97
2023-02-13T17:21:32.773Z,-23282.63
2023-02-13T17:23:36.874Z,-23277.38
2023-02-13T17:25:39.518Z,-23278.19
2023-02-13T17:27:42.991Z,-23282.47
2023-02-13T17:29:45.674Z,-23281.84
2023-02-13T17:31:49.378Z,-23279.44
2023-02-13T17:33:52.116Z,-23281.69
2023-02-13T17:35:55.140Z,-23275.31
2023-02-13T17:37:58.016Z,-23276.25
2023-02-13T17:40:02.069Z,-23267.97
2023-02-13T17:42:05.189Z,-23267.19
2023-02-13T17:44:07.885Z,-23268.94
2023-02-13T17:46:10.549Z,-23263.34
2023-02-13T17:48:13.614Z,-23264.94
2023-02-13T17:50:17.534Z,-23262.06
2023-02-13T17:52:22.737Z,-23257.28
2023-02-13T17:54:25.418Z,-23255.53
2023-02-13T17:56:29.447Z,-23253.16
2023-02-13T17:58:32.156Z,-23260.00
2023-02-13T18:00:35.427Z,-23258.88
2023-02-13T18:02:38.057Z,-23251.41
2023-02-13T18:04:41.095Z,-23246.94
2023-02-13T18:06:44.040Z,-23241.34
2023-02-13T18:08:46.655Z,-23241.03
2023-02-13T18:10:49.483Z,-23243.56
2023-02-13T18:12:54.437Z,-23240.56
2023-02-13T18:14:57.144Z,-23234.97
2023-02-13T18:17:00.238Z,-23235.91
2023-02-13T18:19:03.133Z,-23234.31
2023-02-13T18:21:06.130Z,-23238.16
2023-02-13T18:23:08.816Z,-23237.50
2023-02-13T18:25:11.916Z,-23235.75
2023-02-13T18:27:14.593Z,-23236.56
2023-02-13T18:29:18.638Z,-23240.72
2023-02-13T18:31:21.287Z,-23232.91
2023-02-13T18:33:24.085Z,-23232.09
2023-02-13T18:35:27.054Z,-23228.91
2023-02-13T18:37:30.410Z,-23235.91
2023-02-13T18:39:33.193Z,-23223.63
2023-02-13T18:41:35.848Z,-23229.84
2023-02-13T18:43:38.479Z,-23232.72
2023-02-13T18:45:42.557Z,-23227.94
2023-02-13T18:47:45.249Z,-23229.84
2023-02-13T18:49:47.892Z,-23228.59
2023-02-13T18:51:50.665Z,-23231.28
2023-02-13T18:53:53.325Z,-23223.16
2023-02-13T18:56:03.038Z,-23221.09
2023-02-13T18:58:06.201Z,-23217.41
2023-02-13T19:00:10.104Z,-23215.66
2023-02-13T19:02:14.203Z,-23218.06
2023-02-13T19:04:16.892Z,-23213.75
2023-02-13T19:06:21.975Z,-23218.06
2023-02-13T19:08:24.653Z,-23213.25
2023-02-13T19:10:27.316Z,-23217.41
2023-02-13T19:12:29.908Z,-23214.22
2023-02-13T19:14:32.628Z,-23215.81
2023-02-13T19:16:36.276Z,-23219.97
2023-02-13T19:18:41.321Z,-23218.06
2023-02-13T19:20:43.910Z,-23216.78
2023-02-13T19:22:46.649Z,-23214.84
2023-02-13T19:24:49.290Z,-23210.88
2023-02-13T19:26:51.928Z,-23210.38
2023-02-13T19:28:55.118Z,-23211.03
2023-02-13T19:31:03.495Z,-23211.34
2023-02-13T19:33:06.228Z,-23211.66
2023-02-13T19:35:10.347Z,-23209.13
2023-02-13T19:37:13.029Z,-23207.50
2023-02-13T19:39:15.705Z,-23210.69
2023-02-13T19:41:19.185Z,-23206.56
2023-02-13T19:43:21.838Z,-23202.56
2023-02-13T19:45:24.546Z,-23200.81
2023-02-13T19:47:27.222Z,-23202.56
2023-02-13T19:49:29.896Z,-23207.03
2023-02-13T19:51:35.271Z,-23199.69
2023-02-13T19:53:37.945Z,-23209.75
2023-02-13T19:55:40.628Z,-23210.69
2023-02-13T19:57:43.311Z,-23199.53
2023-02-13T19:59:45.995Z,-23203.19
2023-02-13T20:01:48.786Z,-23199.69
2023-02-13T20:03:52.291Z,-23202.41
2023-02-13T20:05:54.933Z,-23198.56
2023-02-13T20:07:58.996Z,-23202.72
2023-02-13T20:10:01.714Z,-23195.22
2023-02-13T20:12:04.753Z,-23199.53
2023-02-13T20:14:11.429Z,-23197.63
2023-02-13T20:16:17.316Z,-23197.94
2023-02-13T20:18:20.790Z,-23194.75
2023-02-13T20:20:23.494Z,-23191.88
2023-02-13T20:22:26.241Z,-23193.31
2023-02-13T20:24:30.415Z,-23191.38
2023-02-13T20:26:33.182Z,-23193.47
2023-02-13T20:28:35.923Z,-23195.69
2023-02-13T20:30:41.074Z,-23198.56
2023-02-13T20:32:44.215Z,-23199.22
2023-02-13T20:34:59.016Z,-23197.47
2023-02-13T20:37:02.537Z,-23197.28
2023-02-13T20:39:07.782Z,-23197.94
2023-02-13T20:41:12.998Z,-23193.78
2023-02-13T20:43:15.663Z,-23194.59
2023-02-13T20:45:18.660Z,-23199.22
2023-02-13T20:47:21.340Z,-23203.19
2023-02-13T20:49:24.183Z,-23200.66
2023-02-13T20:51:27.266Z,-23196.50
2023-02-13T20:53:31.218Z,-23196.34
2023-02-13T20:55:33.801Z,-23194.59
2023-02-13T20:57:37.934Z,-23195.69
2023-02-13T20:59:40.541Z,-23189.63
2023-02-13T21:01:45.577Z,-23185.78
2023-02-13T21:03:53.509Z,-23187.06
2023-02-13T21:05:56.196Z,-23185.16
2023-02-13T21:07:58.788Z,-23183.25
2023-02-13T21:10:01.474Z,-23183.72
2023-02-13T21:12:04.251Z,-23190.28
2023-02-13T21:14:08.459Z,-23189.94
2023-02-13T21:16:13.500Z,-23182.91
2023-02-13T21:18:16.334Z,-23188.34
2023-02-13T21:20:19.315Z,-23180.69
2023-02-13T21:22:21.944Z,-23180.69
2023-02-13T21:24:24.705Z,-23186.44
2023-02-13T21:26:27.969Z,-23182.28
2023-02-13T21:28:30.901Z,-23181.31
2023-02-13T21:30:35.182Z,-23182.28
2023-02-13T21:32:39.353Z,-23181.31
2023-02-13T21:34:43.412Z,-23178.44
2023-02-13T21:36:46.620Z,-23180.53
2023-02-13T21:38:49.281Z,-23181.00
2023-02-13T21:40:51.898Z,-23182.59
2023-02-13T21:42:54.566Z,-23179.41
2023-02-13T21:44:57.322Z,-23181.16
2023-02-13T21:47:01.520Z,-23178.75
2023-02-13T21:49:06.989Z,-23177.81
2023-02-13T21:51:12.030Z,-23183.88
2023-02-13T21:53:14.842Z,-23182.28
2023-02-13T21:55:17.889Z,-23181.31
2023-02-13T21:57:20.467Z,-23180.19
2023-02-13T21:59:23.215Z,-23177.31
2023-02-13T22:01:27.831Z,-23178.44
2023-02-13T22:03:31.954Z,-23178.75
2023-02-13T22:05:34.668Z,-23183.88
2023-02-13T22:07:57.808Z,-23176.84
2023-02-13T22:10:00.450Z,-23176.53
2023-02-13T22:12:04.169Z,-23174.63
2023-02-13T22:14:09.131Z,-23171.72
2023-02-13T22:16:14.944Z,-23179.41
2023-02-13T22:18:17.573Z,-23175.88
2023-02-13T22:20:22.280Z,-23177.97
2023-02-13T22:22:25.064Z,-23181.16
2023-02-13T22:24:28.254Z,-23179.88
2023-02-13T22:26:32.809Z,-23181.97
2023-02-13T22:28:35.563Z,-23178.44
2023-02-13T22:30:38.430Z,-23175.88
2023-02-13T22:32:41.114Z,-23175.25
2023-02-13T22:34:43.875Z,-23178.75
2023-02-13T22:36:47.851Z,-23180.06
2023-02-13T22:38:51.445Z,-23178.75
2023-02-13T22:40:54.087Z,-23177.50
2023-02-13T22:42:56.744Z,-23176.84
2023-02-13T22:44:59.399Z,-23175.56
2023-02-13T22:47:02.041Z,-23172.38
2023-02-13T22:49:05.102Z,-23173.34
2023-02-13T22:51:09.662Z,-23175.09
2023-02-13T22:53:13.576Z,-23176.38
2023-02-13T22:55:16.360Z,-23176.69
2023-02-13T22:57:19.000Z,-23178.13
2023-02-13T22:59:21.680Z,-23176.84
2023-02-13T23:01:26.427Z,-23169.50
2023-02-13T23:03:32.087Z,-23169.81
2023-02-13T23:05:34.722Z,-23171.91
2023-02-13T23:07:37.439Z,-23173.19
2023-02-13T23:09:41.469Z,-23175.25
2023-02-13T23:12:01.472Z,-23172.53
2023-02-13T23:14:05.232Z,-23166.63
2023-02-13T23:16:13.024Z,-23167.75
2023-02-13T23:18:14.795Z,-23163.91
2023-02-13T23:20:18.276Z,-23166.00
2023-02-13T23:22:20.997Z,-23167.25
2023-02-13T23:24:24.013Z,-23172.69
2023-02-13T23:26:28.026Z,-23175.88
2023-02-13T23:28:30.689Z,-23172.06
2023-02-13T23:30:33.860Z,-23172.22
2023-02-13T23:32:36.536Z,-23175.88
2023-02-13T23:34:39.180Z,-23169.81
2023-02-13T23:36:41.864Z,-23172.06
2023-02-13T23:38:46.451Z,-23169.81
2023-02-13T23:40:49.237Z,-23163.44
2023-02-13T23:42:53.273Z,-23163.09
2023-02-13T23:44:55.899Z,-23161.84
2023-02-13T23:46:58.626Z,-23158.97
2023-02-13T23:49:01.442Z,-23157.19
2023-02-13T23:51:04.306Z,-23158.97
2023-02-13T23:53:07.179Z,-23160.72
2023-02-13T23:55:09.858Z,-23159.91
2023-02-13T23:57:13.058Z,-23160.88
2023-02-13T23:59:17.976Z,-23159.91
